sensor_id;sensor_type;location;lat;lon;timestamp;P1;durP1;ratioP1;P2;durP2;ratioP2
14373;SDS011;7270;49.004;12.066;2023-09-19T00:01:07;1.20;;;1.20;;
14373;SDS011;7270;49.004;12.066;2023-09-19T00:03:36;1.10;;;1.10;;
14373;SDS011;7270;49.004;12.066;2023-09-19T00:06:04;1.00;;;1.00;;
14373;SDS011;7270;49.004;12.066;2023-09-19T00:08:32;1.40;;;1.30;;
14373;SDS011;7270;49.004;12.066;2023-09-19T00:10:58;0.97;;;0.97;;
14373;SDS011;7270;49.004;12.066;2023-09-19T00:13:30;1.00;;;1.00;;
14373;SDS011;7270;49.004;12.066;2023-09-19T00:15:57;1.10;;;1.10;;
14373;SDS011;7270;49.004;12.066;2023-09-19T00:18:24;0.97;;;0.97;;
14373;SDS011;7270;49.004;12.066;2023-09-19T00:20:58;1.10;;;1.10;;
14373;SDS011;7270;49.004;12.066;2023-09-19T00:23:24;1.30;;;1.20;;
14373;SDS011;7270;49.004;12.066;2023-09-19T00:25:50;1.40;;;1.30;;
14373;SDS011;7270;49.004;12.066;2023-09-19T00:28:17;1.00;;;1.00;;
14373;SDS011;7270;49.004;12.066;2023-09-19T00:30:44;1.10;;;1.10;;
14373;SDS011;7270;49.004;12.066;2023-09-19T00:33:14;1.10;;;1.10;;
14373;SDS011;7270;49.004;12.066;2023-09-19T00:35:46;1.10;;;1.10;;
14373;SDS011;7270;49.004;12.066;2023-09-19T00:38:14;1.10;;;1.10;;
14373;SDS011;7270;49.004;12.066;2023-09-19T00:40:43;1.10;;;1.10;;
14373;SDS011;7270;49.004;12.066;2023-09-19T00:43:09;1.20;;;1.20;;
14373;SDS011;7270;49.004;12.066;2023-09-19T00:45:36;1.10;;;1.10;;
14373;SDS011;7270;49.004;12.066;2023-09-19T00:48:04;1.20;;;1.20;;
14373;SDS011;7270;49.004;12.066;2023-09-19T00:50:37;1.20;;;1.20;;
14373;SDS011;7270;49.004;12.066;2023-09-19T00:53:07;1.17;;;1.17;;
14373;SDS011;7270;49.004;12.066;2023-09-19T00:55:36;1.10;;;1.10;;
14373;SDS011;7270;49.004;12.066;2023-09-19T00:58:03;1.10;;;1.10;;
14373;SDS011;7270;49.004;12.066;2023-09-19T01:00:31;1.03;;;1.03;;
14373;SDS011;7270;49.004;12.066;2023-09-19T01:02:59;1.27;;;1.20;;
14373;SDS011;7270;49.004;12.066;2023-09-19T01:05:26;1.10;;;1.10;;
14373;SDS011;7270;49.004;12.066;2023-09-19T01:07:52;1.03;;;1.03;;
14373;SDS011;7270;49.004;12.066;2023-09-19T01:10:19;1.00;;;1.00;;
14373;SDS011;7270;49.004;12.066;2023-09-19T01:13:01;1.20;;;1.20;;
14373;SDS011;7270;49.004;12.066;2023-09-19T01:15:32;1.10;;;1.10;;
14373;SDS011;7270;49.004;12.066;2023-09-19T01:18:10;1.10;;;1.10;;
14373;SDS011;7270;49.004;12.066;2023-09-19T01:20:39;1.20;;;1.20;;
14373;SDS011;7270;49.004;12.066;2023-09-19T01:23:10;1.00;;;1.00;;
14373;SDS011;7270;49.004;12.066;2023-09-19T01:26:02;1.10;;;1.10;;
14373;SDS011;7270;49.004;12.066;2023-09-19T01:28:36;1.20;;;1.20;;
14373;SDS011;7270;49.004;12.066;2023-09-19T01:31:09;1.10;;;1.10;;
14373;SDS011;7270;49.004;12.066;2023-09-19T01:33:54;1.10;;;1.10;;
14373;SDS011;7270;49.004;12.066;2023-09-19T01:36:24;1.10;;;1.10;;
14373;SDS011;7270;49.004;12.066;2023-09-19T01:38:51;1.20;;;1.20;;
14373;SDS011;7270;49.004;12.066;2023-09-19T01:41:19;1.10;;;1.10;;
14373;SDS011;7270;49.004;12.066;2023-09-19T01:43:47;1.27;;;1.20;;
14373;SDS011;7270;49.004;12.066;2023-09-19T01:46:18;1.10;;;1.10;;
14373;SDS011;7270;49.004;12.066;2023-09-19T01:48:49;1.20;;;1.20;;
14373;SDS011;7270;49.004;12.066;2023-09-19T01:51:20;1.17;;;1.17;;
14373;SDS011;7270;49.004;12.066;2023-09-19T01:53:50;1.20;;;1.20;;
14373;SDS011;7270;49.004;12.066;2023-09-19T01:56:20;1.13;;;1.13;;
14373;SDS011;7270;49.004;12.066;2023-09-19T01:58:48;1.20;;;1.20;;
14373;SDS011;7270;49.004;12.066;2023-09-19T02:01:20;1.10;;;1.10;;
14373;SDS011;7270;49.004;12.066;2023-09-19T02:03:48;1.53;;;1.43;;
14373;SDS011;7270;49.004;12.066;2023-09-19T02:06:15;1.20;;;1.20;;
14373;SDS011;7270;49.004;12.066;2023-09-19T02:08:42;1.40;;;1.30;;
14373;SDS011;7270;49.004;12.066;2023-09-19T02:11:10;1.10;;;1.10;;
14373;SDS011;7270;49.004;12.066;2023-09-19T02:13:36;1.30;;;1.20;;
14373;SDS011;7270;49.004;12.066;2023-09-19T02:16:03;1.10;;;1.10;;
14373;SDS011;7270;49.004;12.066;2023-09-19T02:18:32;1.17;;;1.17;;
14373;SDS011;7270;49.004;12.066;2023-09-19T02:21:00;1.20;;;1.20;;
14373;SDS011;7270;49.004;12.066;2023-09-19T02:23:26;1.20;;;1.20;;
14373;SDS011;7270;49.004;12.066;2023-09-19T02:25:52;1.30;;;1.20;;
14373;SDS011;7270;49.004;12.066;2023-09-19T02:28:19;1.13;;;1.13;;
14373;SDS011;7270;49.004;12.066;2023-09-19T02:30:47;1.17;;;1.17;;
14373;SDS011;7270;49.004;12.066;2023-09-19T02:33:14;1.20;;;1.20;;
14373;SDS011;7270;49.004;12.066;2023-09-19T02:35:41;1.27;;;1.20;;
14373;SDS011;7270;49.004;12.066;2023-09-19T02:38:07;1.10;;;1.10;;
14373;SDS011;7270;49.004;12.066;2023-09-19T02:40:36;1.10;;;1.10;;
14373;SDS011;7270;49.004;12.066;2023-09-19T02:43:03;1.07;;;1.07;;
14373;SDS011;7270;49.004;12.066;2023-09-19T02:45:30;1.10;;;1.10;;
14373;SDS011;7270;49.004;12.066;2023-09-19T02:47:57;1.10;;;1.10;;
14373;SDS011;7270;49.004;12.066;2023-09-19T02:50:23;1.10;;;1.10;;
14373;SDS011;7270;49.004;12.066;2023-09-19T02:52:51;1.40;;;1.30;;
14373;SDS011;7270;49.004;12.066;2023-09-19T02:55:18;1.10;;;1.10;;
14373;SDS011;7270;49.004;12.066;2023-09-19T02:57:47;1.20;;;1.20;;
14373;SDS011;7270;49.004;12.066;2023-09-19T03:00:14;1.20;;;1.20;;
14373;SDS011;7270;49.004;12.066;2023-09-19T03:02:41;1.10;;;1.10;;
14373;SDS011;7270;49.004;12.066;2023-09-19T03:05:10;1.17;;;1.17;;
14373;SDS011;7270;49.004;12.066;2023-09-19T03:07:37;1.07;;;1.07;;
14373;SDS011;7270;49.004;12.066;2023-09-19T03:10:05;1.10;;;1.10;;
14373;SDS011;7270;49.004;12.066;2023-09-19T03:12:32;1.20;;;1.20;;
14373;SDS011;7270;49.004;12.066;2023-09-19T03:14:59;1.20;;;1.20;;
14373;SDS011;7270;49.004;12.066;2023-09-19T03:17:25;1.30;;;1.20;;
14373;SDS011;7270;49.004;12.066;2023-09-19T03:19:52;1.33;;;1.23;;
14373;SDS011;7270;49.004;12.066;2023-09-19T03:22:18;1.10;;;1.10;;
14373;SDS011;7270;49.004;12.066;2023-09-19T03:24:45;1.10;;;1.10;;
14373;SDS011;7270;49.004;12.066;2023-09-19T03:27:13;1.20;;;1.20;;
14373;SDS011;7270;49.004;12.066;2023-09-19T03:29:41;1.10;;;1.10;;
14373;SDS011;7270;49.004;12.066;2023-09-19T03:32:07;1.10;;;1.10;;
14373;SDS011;7270;49.004;12.066;2023-09-19T03:34:35;1.20;;;1.20;;
14373;SDS011;7270;49.004;12.066;2023-09-19T03:37:02;1.50;;;1.40;;
14373;SDS011;7270;49.004;12.066;2023-09-19T03:39:29;1.10;;;1.10;;
14373;SDS011;7270;49.004;12.066;2023-09-19T03:41:55;1.10;;;1.10;;
14373;SDS011;7270;49.004;12.066;2023-09-19T03:44:22;1.20;;;1.20;;
14373;SDS011;7270;49.004;12.066;2023-09-19T03:46:49;1.20;;;1.20;;
14373;SDS011;7270;49.004;12.066;2023-09-19T03:49:15;1.20;;;1.20;;
14373;SDS011;7270;49.004;12.066;2023-09-19T03:51:41;1.40;;;1.30;;
14373;SDS011;7270;49.004;12.066;2023-09-19T03:54:08;1.40;;;1.30;;
14373;SDS011;7270;49.004;12.066;2023-09-19T03:56:34;1.33;;;1.23;;
14373;SDS011;7270;49.004;12.066;2023-09-19T03:59:00;1.17;;;1.17;;
14373;SDS011;7270;49.004;12.066;2023-09-19T04:01:30;1.30;;;1.20;;
14373;SDS011;7270;49.004;12.066;2023-09-19T04:03:57;1.37;;;1.27;;
14373;SDS011;7270;49.004;12.066;2023-09-19T04:06:24;1.20;;;1.20;;
14373;SDS011;7270;49.004;12.066;2023-09-19T04:08:52;1.20;;;1.20;;
14373;SDS011;7270;49.004;12.066;2023-09-19T04:11:19;1.30;;;1.20;;
14373;SDS011;7270;49.004;12.066;2023-09-19T04:13:46;1.13;;;1.13;;
14373;SDS011;7270;49.004;12.066;2023-09-19T04:16:12;1.20;;;1.20;;
14373;SDS011;7270;49.004;12.066;2023-09-19T04:18:40;1.30;;;1.30;;
14373;SDS011;7270;49.004;12.066;2023-09-19T04:21:06;1.30;;;1.20;;
14373;SDS011;7270;49.004;12.066;2023-09-19T04:23:33;1.47;;;1.37;;
14373;SDS011;7270;49.004;12.066;2023-09-19T04:25:59;1.30;;;1.20;;
14373;SDS011;7270;49.004;12.066;2023-09-19T04:28:25;1.40;;;1.30;;
14373;SDS011;7270;49.004;12.066;2023-09-19T04:30:53;1.10;;;1.10;;
14373;SDS011;7270;49.004;12.066;2023-09-19T04:33:20;1.20;;;1.20;;
14373;SDS011;7270;49.004;12.066;2023-09-19T04:35:49;1.33;;;1.30;;
14373;SDS011;7270;49.004;12.066;2023-09-19T04:38:16;1.40;;;1.30;;
14373;SDS011;7270;49.004;12.066;2023-09-19T04:40:44;1.13;;;1.13;;
14373;SDS011;7270;49.004;12.066;2023-09-19T04:43:10;1.40;;;1.30;;
14373;SDS011;7270;49.004;12.066;2023-09-19T04:45:37;1.20;;;1.20;;
14373;SDS011;7270;49.004;12.066;2023-09-19T04:48:10;1.50;;;1.40;;
14373;SDS011;7270;49.004;12.066;2023-09-19T04:50:37;1.10;;;1.10;;
14373;SDS011;7270;49.004;12.066;2023-09-19T04:53:13;1.20;;;1.20;;
14373;SDS011;7270;49.004;12.066;2023-09-19T04:55:40;1.40;;;1.30;;
14373;SDS011;7270;49.004;12.066;2023-09-19T04:58:09;1.50;;;1.40;;
14373;SDS011;7270;49.004;12.066;2023-09-19T05:00:38;1.30;;;1.20;;
14373;SDS011;7270;49.004;12.066;2023-09-19T05:03:05;1.30;;;1.20;;
14373;SDS011;7270;49.004;12.066;2023-09-19T05:05:33;1.27;;;1.20;;
14373;SDS011;7270;49.004;12.066;2023-09-19T05:08:00;1.10;;;1.10;;
14373;SDS011;7270;49.004;12.066;2023-09-19T05:10:31;1.10;;;1.10;;
14373;SDS011;7270;49.004;12.066;2023-09-19T05:12:57;1.40;;;1.30;;
14373;SDS011;7270;49.004;12.066;2023-09-19T05:15:24;1.40;;;1.30;;
14373;SDS011;7270;49.004;12.066;2023-09-19T05:17:51;1.20;;;1.20;;
14373;SDS011;7270;49.004;12.066;2023-09-19T05:20:19;1.40;;;1.30;;
14373;SDS011;7270;49.004;12.066;2023-09-19T05:22:50;1.40;;;1.30;;
14373;SDS011;7270;49.004;12.066;2023-09-19T05:25:16;1.20;;;1.20;;
14373;SDS011;7270;49.004;12.066;2023-09-19T05:27:45;1.40;;;1.30;;
14373;SDS011;7270;49.004;12.066;2023-09-19T05:30:11;1.17;;;1.17;;
14373;SDS011;7270;49.004;12.066;2023-09-19T05:32:39;1.60;;;1.50;;
14373;SDS011;7270;49.004;12.066;2023-09-19T05:35:06;1.40;;;1.30;;
14373;SDS011;7270;49.004;12.066;2023-09-19T05:37:34;1.43;;;1.33;;
14373;SDS011;7270;49.004;12.066;2023-09-19T05:40:01;1.20;;;1.20;;
14373;SDS011;7270;49.004;12.066;2023-09-19T05:42:32;1.47;;;1.37;;
14373;SDS011;7270;49.004;12.066;2023-09-19T05:45:00;1.40;;;1.30;;
14373;SDS011;7270;49.004;12.066;2023-09-19T05:47:26;1.30;;;1.20;;
14373;SDS011;7270;49.004;12.066;2023-09-19T05:49:52;1.40;;;1.30;;
14373;SDS011;7270;49.004;12.066;2023-09-19T05:52:19;1.30;;;1.20;;
14373;SDS011;7270;49.004;12.066;2023-09-19T05:54:46;1.30;;;1.20;;
14373;SDS011;7270;49.004;12.066;2023-09-19T05:57:17;1.30;;;1.20;;
14373;SDS011;7270;49.004;12.066;2023-09-19T05:59:44;1.40;;;1.30;;
14373;SDS011;7270;49.004;12.066;2023-09-19T06:02:11;1.30;;;1.20;;
14373;SDS011;7270;49.004;12.066;2023-09-19T06:04:38;1.40;;;1.30;;
14373;SDS011;7270;49.004;12.066;2023-09-19T06:07:06;1.40;;;1.30;;
14373;SDS011;7270;49.004;12.066;2023-09-19T06:09:32;1.40;;;1.30;;
14373;SDS011;7270;49.004;12.066;2023-09-19T06:11:59;1.20;;;1.20;;
14373;SDS011;7270;49.004;12.066;2023-09-19T06:14:28;1.50;;;1.40;;
14373;SDS011;7270;49.004;12.066;2023-09-19T06:16:54;1.30;;;1.20;;
14373;SDS011;7270;49.004;12.066;2023-09-19T06:19:22;1.40;;;1.30;;
14373;SDS011;7270;49.004;12.066;2023-09-19T06:21:51;1.40;;;1.30;;
14373;SDS011;7270;49.004;12.066;2023-09-19T06:24:18;1.40;;;1.30;;
14373;SDS011;7270;49.004;12.066;2023-09-19T06:26:46;1.40;;;1.30;;
14373;SDS011;7270;49.004;12.066;2023-09-19T06:29:12;1.37;;;1.27;;
14373;SDS011;7270;49.004;12.066;2023-09-19T06:31:39;1.53;;;1.43;;
14373;SDS011;7270;49.004;12.066;2023-09-19T06:34:05;1.33;;;1.23;;
14373;SDS011;7270;49.004;12.066;2023-09-19T06:36:33;1.07;;;1.07;;
14373;SDS011;7270;49.004;12.066;2023-09-19T06:38:59;1.40;;;1.30;;
14373;SDS011;7270;49.004;12.066;2023-09-19T06:41:26;1.40;;;1.30;;
14373;SDS011;7270;49.004;12.066;2023-09-19T06:43:52;1.40;;;1.30;;
14373;SDS011;7270;49.004;12.066;2023-09-19T06:46:19;1.30;;;1.20;;
14373;SDS011;7270;49.004;12.066;2023-09-19T06:48:45;1.30;;;1.20;;
14373;SDS011;7270;49.004;12.066;2023-09-19T06:51:12;1.30;;;1.20;;
14373;SDS011;7270;49.004;12.066;2023-09-19T06:53:42;1.30;;;1.20;;
14373;SDS011;7270;49.004;12.066;2023-09-19T06:56:09;1.30;;;1.20;;
14373;SDS011;7270;49.004;12.066;2023-09-19T06:58:35;1.57;;;1.47;;
14373;SDS011;7270;49.004;12.066;2023-09-19T07:01:09;1.40;;;1.30;;
14373;SDS011;7270;49.004;12.066;2023-09-19T07:03:36;1.27;;;1.20;;
14373;SDS011;7270;49.004;12.066;2023-09-19T07:06:02;1.47;;;1.37;;
14373;SDS011;7270;49.004;12.066;2023-09-19T07:08:29;1.43;;;1.33;;
14373;SDS011;7270;49.004;12.066;2023-09-19T07:10:57;1.40;;;1.30;;
14373;SDS011;7270;49.004;12.066;2023-09-19T07:13:24;2.20;;;2.10;;
14373;SDS011;7270;49.004;12.066;2023-09-19T07:15:50;1.60;;;1.50;;
14373;SDS011;7270;49.004;12.066;2023-09-19T07:18:16;1.40;;;1.30;;
14373;SDS011;7270;49.004;12.066;2023-09-19T07:20:43;1.60;;;1.50;;
14373;SDS011;7270;49.004;12.066;2023-09-19T07:23:13;1.40;;;1.30;;
14373;SDS011;7270;49.004;12.066;2023-09-19T07:25:40;1.50;;;1.40;;
14373;SDS011;7270;49.004;12.066;2023-09-19T07:28:07;1.47;;;1.37;;
14373;SDS011;7270;49.004;12.066;2023-09-19T07:30:36;1.50;;;1.40;;
14373;SDS011;7270;49.004;12.066;2023-09-19T07:33:06;1.60;;;1.50;;
14373;SDS011;7270;49.004;12.066;2023-09-19T07:35:36;1.90;;;1.80;;
14373;SDS011;7270;49.004;12.066;2023-09-19T07:38:02;1.50;;;1.40;;
14373;SDS011;7270;49.004;12.066;2023-09-19T07:40:29;1.50;;;1.40;;
14373;SDS011;7270;49.004;12.066;2023-09-19T07:42:55;1.50;;;1.40;;
14373;SDS011;7270;49.004;12.066;2023-09-19T07:45:23;1.50;;;1.40;;
14373;SDS011;7270;49.004;12.066;2023-09-19T07:47:50;1.40;;;1.30;;
14373;SDS011;7270;49.004;12.066;2023-09-19T07:50:17;1.43;;;1.33;;
14373;SDS011;7270;49.004;12.066;2023-09-19T07:52:45;1.70;;;1.60;;
14373;SDS011;7270;49.004;12.066;2023-09-19T07:55:12;1.70;;;1.60;;
14373;SDS011;7270;49.004;12.066;2023-09-19T07:57:41;1.80;;;1.70;;
14373;SDS011;7270;49.004;12.066;2023-09-19T08:00:08;1.50;;;1.40;;
14373;SDS011;7270;49.004;12.066;2023-09-19T08:02:36;1.80;;;1.70;;
14373;SDS011;7270;49.004;12.066;2023-09-19T08:05:03;1.50;;;1.40;;
14373;SDS011;7270;49.004;12.066;2023-09-19T08:07:31;1.50;;;1.40;;
14373;SDS011;7270;49.004;12.066;2023-09-19T08:09:57;1.50;;;1.40;;
14373;SDS011;7270;49.004;12.066;2023-09-19T08:12:24;1.73;;;1.63;;
14373;SDS011;7270;49.004;12.066;2023-09-19T08:14:51;1.80;;;1.70;;
14373;SDS011;7270;49.004;12.066;2023-09-19T08:17:20;1.60;;;1.50;;
14373;SDS011;7270;49.004;12.066;2023-09-19T08:19:49;1.20;;;1.20;;
14373;SDS011;7270;49.004;12.066;2023-09-19T08:22:17;1.40;;;1.30;;
14373;SDS011;7270;49.004;12.066;2023-09-19T08:24:44;1.20;;;1.20;;
14373;SDS011;7270;49.004;12.066;2023-09-19T08:27:11;1.20;;;1.20;;
14373;SDS011;7270;49.004;12.066;2023-09-19T08:29:37;1.30;;;1.20;;
14373;SDS011;7270;49.004;12.066;2023-09-19T08:32:04;1.20;;;1.20;;
14373;SDS011;7270;49.004;12.066;2023-09-19T08:34:30;1.30;;;1.30;;
14373;SDS011;7270;49.004;12.066;2023-09-19T08:36:59;1.20;;;1.20;;
14373;SDS011;7270;49.004;12.066;2023-09-19T08:39:26;1.30;;;1.20;;
14373;SDS011;7270;49.004;12.066;2023-09-19T08:41:56;1.13;;;1.13;;
14373;SDS011;7270;49.004;12.066;2023-09-19T08:44:23;1.20;;;1.20;;
14373;SDS011;7270;49.004;12.066;2023-09-19T08:46:50;1.20;;;1.20;;
14373;SDS011;7270;49.004;12.066;2023-09-19T08:49:29;1.40;;;1.30;;
14373;SDS011;7270;49.004;12.066;2023-09-19T08:52:01;1.40;;;1.30;;
14373;SDS011;7270;49.004;12.066;2023-09-19T08:54:32;1.60;;;1.50;;
14373;SDS011;7270;49.004;12.066;2023-09-19T08:57:05;1.40;;;1.30;;
14373;SDS011;7270;49.004;12.066;2023-09-19T08:59:33;1.40;;;1.30;;
14373;SDS011;7270;49.004;12.066;2023-09-19T09:02:00;1.40;;;1.30;;
14373;SDS011;7270;49.004;12.066;2023-09-19T09:04:29;1.40;;;1.30;;
14373;SDS011;7270;49.004;12.066;2023-09-19T09:06:56;1.50;;;1.40;;
14373;SDS011;7270;49.004;12.066;2023-09-19T09:09:24;1.50;;;1.40;;
14373;SDS011;7270;49.004;12.066;2023-09-19T09:11:51;1.50;;;1.40;;
14373;SDS011;7270;49.004;12.066;2023-09-19T09:14:18;1.67;;;1.57;;
14373;SDS011;7270;49.004;12.066;2023-09-19T09:16:44;1.50;;;1.40;;
14373;SDS011;7270;49.004;12.066;2023-09-19T09:19:11;1.40;;;1.30;;
14373;SDS011;7270;49.004;12.066;2023-09-19T09:21:37;1.60;;;1.50;;
14373;SDS011;7270;49.004;12.066;2023-09-19T09:26:57;1.40;;;1.30;;
14373;SDS011;7270;49.004;12.066;2023-09-19T09:32:16;1.70;;;1.60;;
14373;SDS011;7270;49.004;12.066;2023-09-19T09:34:43;1.70;;;1.60;;
14373;SDS011;7270;49.004;12.066;2023-09-19T09:37:12;1.50;;;1.40;;
14373;SDS011;7270;49.004;12.066;2023-09-19T09:39:48;1.50;;;1.40;;
14373;SDS011;7270;49.004;12.066;2023-09-19T09:42:21;2.00;;;1.90;;
14373;SDS011;7270;49.004;12.066;2023-09-19T09:45:02;2.17;;;2.07;;
14373;SDS011;7270;49.004;12.066;2023-09-19T09:47:42;2.00;;;1.90;;
14373;SDS011;7270;49.004;12.066;2023-09-19T09:50:25;1.87;;;1.77;;
14373;SDS011;7270;49.004;12.066;2023-09-19T09:52:55;1.80;;;1.70;;
14373;SDS011;7270;49.004;12.066;2023-09-19T09:55:26;1.90;;;1.80;;
14373;SDS011;7270;49.004;12.066;2023-09-19T09:57:59;1.87;;;1.77;;
14373;SDS011;7270;49.004;12.066;2023-09-19T10:00:51;1.70;;;1.60;;
14373;SDS011;7270;49.004;12.066;2023-09-19T10:03:20;1.70;;;1.60;;
14373;SDS011;7270;49.004;12.066;2023-09-19T10:05:52;1.70;;;1.60;;
14373;SDS011;7270;49.004;12.066;2023-09-19T10:08:20;1.60;;;1.50;;
14373;SDS011;7270;49.004;12.066;2023-09-19T10:10:47;1.80;;;1.70;;
14373;SDS011;7270;49.004;12.066;2023-09-19T10:13:29;1.60;;;1.50;;
14373;SDS011;7270;49.004;12.066;2023-09-19T10:15:56;1.60;;;1.50;;
14373;SDS011;7270;49.004;12.066;2023-09-19T10:18:26;1.70;;;1.60;;
14373;SDS011;7270;49.004;12.066;2023-09-19T10:20:53;1.60;;;1.50;;
14373;SDS011;7270;49.004;12.066;2023-09-19T10:23:21;1.60;;;1.50;;
14373;SDS011;7270;49.004;12.066;2023-09-19T10:25:56;1.60;;;1.50;;
14373;SDS011;7270;49.004;12.066;2023-09-19T10:28:23;1.60;;;1.50;;
14373;SDS011;7270;49.004;12.066;2023-09-19T10:30:54;1.60;;;1.50;;
14373;SDS011;7270;49.004;12.066;2023-09-19T10:33:21;1.80;;;1.70;;
14373;SDS011;7270;49.004;12.066;2023-09-19T10:35:51;2.20;;;2.10;;
14373;SDS011;7270;49.004;12.066;2023-09-19T10:38:18;2.43;;;2.33;;
14373;SDS011;7270;49.004;12.066;2023-09-19T10:40:48;4.40;;;4.20;;
14373;SDS011;7270;49.004;12.066;2023-09-19T10:43:15;13.17;;;12.53;;
14373;SDS011;7270;49.004;12.066;2023-09-19T10:45:43;8.47;;;8.07;;
14373;SDS011;7270;49.004;12.066;2023-09-19T10:48:11;5.87;;;5.57;;
14373;SDS011;7270;49.004;12.066;2023-09-19T10:50:41;6.07;;;5.67;;
14373;SDS011;7270;49.004;12.066;2023-09-19T10:53:10;5.13;;;4.83;;
14373;SDS011;7270;49.004;12.066;2023-09-19T10:55:37;4.17;;;3.90;;
14373;SDS011;7270;49.004;12.066;2023-09-19T10:58:04;3.90;;;3.70;;
14373;SDS011;7270;49.004;12.066;2023-09-19T11:00:52;2.80;;;2.70;;
14373;SDS011;7270;49.004;12.066;2023-09-19T11:03:21;2.50;;;2.40;;
14373;SDS011;7270;49.004;12.066;2023-09-19T11:06:07;3.10;;;2.90;;
14373;SDS011;7270;49.004;12.066;2023-09-19T11:08:51;3.13;;;2.93;;
14373;SDS011;7270;49.004;12.066;2023-09-19T11:14:13;3.00;;;2.90;;
14373;SDS011;7270;49.004;12.066;2023-09-19T11:16:41;2.70;;;2.60;;
14373;SDS011;7270;49.004;12.066;2023-09-19T11:22:11;4.43;;;4.13;;
14373;SDS011;7270;49.004;12.066;2023-09-19T11:24:37;8.37;;;7.97;;
14373;SDS011;7270;49.004;12.066;2023-09-19T11:27:10;76.53;;;73.00;;
14373;SDS011;7270;49.004;12.066;2023-09-19T11:29:38;353.60;;;330.27;;
14373;SDS011;7270;49.004;12.066;2023-09-19T11:32:05;284.00;;;268.70;;
14373;SDS011;7270;49.004;12.066;2023-09-19T11:40:09;260.40;;;247.30;;
14373;SDS011;7270;49.004;12.066;2023-09-19T11:42:41;161.73;;;154.07;;
14373;SDS011;7270;49.004;12.066;2023-09-19T11:45:07;147.30;;;140.67;;
14373;SDS011;7270;49.004;12.066;2023-09-19T11:47:34;111.87;;;106.90;;
14373;SDS011;7270;49.004;12.066;2023-09-19T11:50:01;62.53;;;59.63;;
14373;SDS011;7270;49.004;12.066;2023-09-19T11:52:28;114.50;;;109.37;;
14373;SDS011;7270;49.004;12.066;2023-09-19T11:54:59;53.43;;;50.93;;
14373;SDS011;7270;49.004;12.066;2023-09-19T11:57:28;34.13;;;32.53;;
14373;SDS011;7270;49.004;12.066;2023-09-19T11:59:55;25.90;;;24.70;;
14373;SDS011;7270;49.004;12.066;2023-09-19T12:02:27;67.97;;;64.73;;
14373;SDS011;7270;49.004;12.066;2023-09-19T12:04:59;87.90;;;83.90;;
14373;SDS011;7270;49.004;12.066;2023-09-19T12:07:26;65.80;;;62.70;;
14373;SDS011;7270;49.004;12.066;2023-09-19T12:10:02;41.17;;;39.27;;
14373;SDS011;7270;49.004;12.066;2023-09-19T12:12:30;33.97;;;32.37;;
14373;SDS011;7270;49.004;12.066;2023-09-19T12:14:58;19.40;;;18.50;;
14373;SDS011;7270;49.004;12.066;2023-09-19T12:17:35;17.17;;;16.37;;
14373;SDS011;7270;49.004;12.066;2023-09-19T12:20:01;19.53;;;18.63;;
14373;SDS011;7270;49.004;12.066;2023-09-19T12:22:40;12.23;;;11.67;;
14373;SDS011;7270;49.004;12.066;2023-09-19T12:25:09;10.37;;;9.77;;
14373;SDS011;7270;49.004;12.066;2023-09-19T12:27:42;9.23;;;8.83;;
14373;SDS011;7270;49.004;12.066;2023-09-19T12:30:12;10.83;;;10.13;;
14373;SDS011;7270;49.004;12.066;2023-09-19T12:32:41;14.60;;;13.93;;
14373;SDS011;7270;49.004;12.066;2023-09-19T12:35:08;20.50;;;19.47;;
14373;SDS011;7270;49.004;12.066;2023-09-19T12:37:36;24.37;;;23.20;;
14373;SDS011;7270;49.004;12.066;2023-09-19T12:40:03;55.37;;;52.77;;
14373;SDS011;7270;49.004;12.066;2023-09-19T12:42:40;47.30;;;45.07;;
14373;SDS011;7270;49.004;12.066;2023-09-19T12:45:08;25.37;;;24.17;;
14373;SDS011;7270;49.004;12.066;2023-09-19T12:47:35;49.20;;;46.90;;
14373;SDS011;7270;49.004;12.066;2023-09-19T12:50:11;32.80;;;31.20;;
14373;SDS011;7270;49.004;12.066;2023-09-19T12:52:42;20.80;;;19.80;;
14373;SDS011;7270;49.004;12.066;2023-09-19T12:55:19;16.60;;;15.70;;
14373;SDS011;7270;49.004;12.066;2023-09-19T12:57:54;12.60;;;11.90;;
14373;SDS011;7270;49.004;12.066;2023-09-19T13:00:22;13.30;;;12.57;;
14373;SDS011;7270;49.004;12.066;2023-09-19T13:03:17;9.10;;;8.70;;
14373;SDS011;7270;49.004;12.066;2023-09-19T13:05:50;7.53;;;7.10;;
14373;SDS011;7270;49.004;12.066;2023-09-19T13:08:17;6.57;;;6.27;;
14373;SDS011;7270;49.004;12.066;2023-09-19T13:10:59;6.07;;;5.77;;
14373;SDS011;7270;49.004;12.066;2023-09-19T13:13:25;5.63;;;5.33;;
14373;SDS011;7270;49.004;12.066;2023-09-19T13:15:55;5.27;;;5.07;;
14373;SDS011;7270;49.004;12.066;2023-09-19T13:18:22;4.60;;;4.40;;
14373;SDS011;7270;49.004;12.066;2023-09-19T13:26:40;4.33;;;4.13;;
14373;SDS011;7270;49.004;12.066;2023-09-19T13:29:06;4.40;;;4.13;;
14373;SDS011;7270;49.004;12.066;2023-09-19T13:31:34;3.80;;;3.60;;
14373;SDS011;7270;49.004;12.066;2023-09-19T13:34:00;3.60;;;3.40;;
14373;SDS011;7270;49.004;12.066;2023-09-19T13:36:27;4.00;;;3.80;;
14373;SDS011;7270;49.004;12.066;2023-09-19T13:38:54;3.80;;;3.60;;
14373;SDS011;7270;49.004;12.066;2023-09-19T13:41:20;3.80;;;3.60;;
14373;SDS011;7270;49.004;12.066;2023-09-19T13:43:47;3.40;;;3.23;;
14373;SDS011;7270;49.004;12.066;2023-09-19T13:46:14;3.80;;;3.60;;
14373;SDS011;7270;49.004;12.066;2023-09-19T13:48:42;3.70;;;3.50;;
14373;SDS011;7270;49.004;12.066;2023-09-19T13:51:09;2.90;;;2.80;;
14373;SDS011;7270;49.004;12.066;2023-09-19T13:53:35;2.97;;;2.87;;
14373;SDS011;7270;49.004;12.066;2023-09-19T13:56:02;3.30;;;3.20;;
14373;SDS011;7270;49.004;12.066;2023-09-19T13:58:28;3.20;;;3.00;;
14373;SDS011;7270;49.004;12.066;2023-09-19T14:00:56;3.00;;;2.90;;
14373;SDS011;7270;49.004;12.066;2023-09-19T14:03:23;3.20;;;3.10;;
14373;SDS011;7270;49.004;12.066;2023-09-19T14:05:51;3.60;;;3.40;;
14373;SDS011;7270;49.004;12.066;2023-09-19T14:08:17;3.67;;;3.47;;
14373;SDS011;7270;49.004;12.066;2023-09-19T14:10:43;3.87;;;3.67;;
14373;SDS011;7270;49.004;12.066;2023-09-19T14:13:10;3.50;;;3.30;;
14373;SDS011;7270;49.004;12.066;2023-09-19T14:15:38;3.53;;;3.33;;
14373;SDS011;7270;49.004;12.066;2023-09-19T14:18:04;3.53;;;3.33;;
14373;SDS011;7270;49.004;12.066;2023-09-19T14:20:31;3.30;;;3.10;;
14373;SDS011;7270;49.004;12.066;2023-09-19T14:22:59;3.40;;;3.20;;
14373;SDS011;7270;49.004;12.066;2023-09-19T14:25:26;3.90;;;3.70;;
14373;SDS011;7270;49.004;12.066;2023-09-19T14:27:53;4.30;;;4.10;;
14373;SDS011;7270;49.004;12.066;2023-09-19T14:30:20;4.83;;;4.53;;
14373;SDS011;7270;49.004;12.066;2023-09-19T14:32:46;4.30;;;4.10;;
14373;SDS011;7270;49.004;12.066;2023-09-19T14:35:13;4.80;;;4.60;;
14373;SDS011;7270;49.004;12.066;2023-09-19T14:37:40;5.60;;;5.30;;
14373;SDS011;7270;49.004;12.066;2023-09-19T14:40:08;5.23;;;5.03;;
14373;SDS011;7270;49.004;12.066;2023-09-19T14:42:35;5.00;;;4.70;;
14373;SDS011;7270;49.004;12.066;2023-09-19T14:45:03;4.80;;;4.60;;
14373;SDS011;7270;49.004;12.066;2023-09-19T14:47:30;4.47;;;4.17;;
14373;SDS011;7270;49.004;12.066;2023-09-19T14:49:57;3.80;;;3.60;;
14373;SDS011;7270;49.004;12.066;2023-09-19T14:52:24;3.23;;;3.03;;
14373;SDS011;7270;49.004;12.066;2023-09-19T14:54:53;2.87;;;2.70;;
14373;SDS011;7270;49.004;12.066;2023-09-19T14:57:21;2.60;;;2.40;;
14373;SDS011;7270;49.004;12.066;2023-09-19T14:59:49;2.53;;;2.33;;
14373;SDS011;7270;49.004;12.066;2023-09-19T15:02:15;2.00;;;1.90;;
14373;SDS011;7270;49.004;12.066;2023-09-19T15:04:43;2.00;;;1.90;;
14373;SDS011;7270;49.004;12.066;2023-09-19T15:07:12;1.90;;;1.80;;
14373;SDS011;7270;49.004;12.066;2023-09-19T15:09:39;1.90;;;1.80;;
14373;SDS011;7270;49.004;12.066;2023-09-19T15:12:06;1.90;;;1.80;;
14373;SDS011;7270;49.004;12.066;2023-09-19T15:14:34;2.13;;;2.03;;
14373;SDS011;7270;49.004;12.066;2023-09-19T15:17:00;2.10;;;2.00;;